createdAt,value
2019-01-05T00:00:28.691Z,101397.47
2019-01-05T00:03:14.790Z,101397.47
2019-01-05T00:06:01.320Z,101393.92
2019-01-05T00:08:47.800Z,101384.61
2019-01-05T00:11:34.319Z,101384.61
2019-01-05T00:14:20.780Z,101372.22
2019-01-05T00:17:07.332Z,101372.22
2019-01-05T00:19:54.097Z,101371.75
2019-01-05T00:22:40.588Z,101365.11
2019-01-05T00:25:27.527Z,101365.11
2019-01-05T00:28:14.070Z,101370.34
2019-01-05T00:31:00.501Z,101369.44
2019-01-05T00:33:48.162Z,101369.44
2019-01-05T00:36:34.892Z,101361.48
2019-01-05T00:39:21.421Z,101357.05
2019-01-05T00:42:07.949Z,101350.85
2019-01-05T00:44:54.454Z,101350.85
2019-01-05T00:47:41.205Z,101353.45
2019-01-05T00:50:27.702Z,101351.21
2019-01-05T00:53:14.415Z,101353.81
2019-01-05T01:01:59.016Z,101342.17
2019-01-05T01:04:46.711Z,101338.63
2019-01-05T01:07:33.147Z,101335.90
2019-01-05T01:10:19.641Z,101341.98
2019-01-05T01:13:06.466Z,101341.98
2019-01-05T01:15:52.962Z,101340.89
2019-01-05T01:18:39.759Z,101340.89
2019-01-05T01:21:26.280Z,101335.06
2019-01-05T01:24:12.978Z,101335.06
2019-01-05T01:27:02.448Z,101337.58
2019-01-05T01:29:57.183Z,101334.45
2019-01-05T01:32:43.624Z,101328.25
2019-01-05T01:35:30.407Z,101322.02
2019-01-05T01:38:16.857Z,101320.05
2019-01-05T01:41:03.643Z,101319.61
2019-01-05T01:43:50.090Z,101315.13
2019-01-05T01:46:36.846Z,101321.63
2019-01-05T01:49:23.305Z,101318.07
2019-01-05T01:52:10.485Z,101318.07
2019-01-05T01:54:57.003Z,101313.59
2019-01-05T01:57:43.780Z,101312.67
2019-01-05T02:00:30.208Z,101295.86
2019-01-05T02:06:22.177Z,101290.94
2019-01-05T02:09:08.940Z,101290.94
2019-01-05T02:11:55.371Z,101284.25
2019-01-05T02:14:42.192Z,101278.48
2019-01-05T02:17:28.630Z,101278.41
2019-01-05T02:20:15.459Z,101278.41
2019-01-05T02:23:01.924Z,101271.80
2019-01-05T02:25:48.419Z,101269.59
2019-01-05T02:28:32.208Z,101274.34
2019-01-05T02:31:19.408Z,101265.95
2019-01-05T02:34:05.848Z,101268.55
2019-01-05T02:36:52.629Z,101260.63
2019-01-05T02:39:39.062Z,101259.70
2019-01-05T02:42:25.857Z,101260.97
2019-01-05T02:45:12.329Z,101260.97
2019-01-05T02:47:59.087Z,101242.36
2019-01-05T02:50:35.353Z,101242.36
2019-01-05T02:53:22.100Z,101241.91
2019-01-05T02:56:08.608Z,101233.06
2019-01-05T02:58:55.341Z,101233.06
2019-01-05T03:01:41.857Z,101228.58
2019-01-05T03:04:28.598Z,101219.28
2019-01-05T03:07:15.094Z,101219.28
2019-01-05T03:10:14.174Z,101215.67
2019-01-05T03:12:48.175Z,101215.67
2019-01-05T03:15:34.972Z,101204.62
2019-01-05T03:18:21.391Z,101205.89
2019-01-05T03:21:08.186Z,101205.80
2019-01-05T03:23:54.729Z,101208.84
2019-01-05T03:26:41.198Z,101219.71
2019-01-05T03:29:27.713Z,101219.71
2019-01-05T03:32:12.011Z,101216.09
2019-01-05T03:34:58.538Z,101207.55
2019-01-05T03:37:46.180Z,101207.55
2019-01-05T03:40:32.618Z,101185.38
2019-01-05T03:43:19.409Z,101179.03
2019-01-05T03:46:05.949Z,101179.03
2019-01-05T03:48:47.690Z,101177.52
2019-01-05T03:51:34.170Z,101177.52
2019-01-05T03:54:20.983Z,101174.33
2019-01-05T03:57:07.535Z,101159.74
2019-01-05T03:59:54.262Z,101155.20
2019-01-05T04:02:40.805Z,101155.20
2019-01-05T04:05:27.512Z,101150.30
2019-01-05T04:08:14.011Z,101139.20
2019-01-05T04:11:00.879Z,101139.20
2019-01-05T04:13:47.328Z,101138.22
2019-01-05T04:16:33.855Z,101138.22
2019-01-05T04:19:20.291Z,101127.59
2019-01-05T04:22:06.805Z,101127.59
2019-01-05T04:24:53.497Z,101129.70
2019-01-05T04:27:33.927Z,101125.68
2019-01-05T04:30:20.371Z,101125.68
2019-01-05T04:33:06.855Z,101121.17
2019-01-05T04:35:53.552Z,101109.67
2019-01-05T04:38:40.046Z,101109.67
2019-01-05T04:41:29.819Z,101108.75
2019-01-05T04:44:16.274Z,101108.75
2019-01-05T04:47:03.029Z,101089.26
2019-01-05T04:49:49.464Z,101089.26
2019-01-05T04:52:36.254Z,101086.61
2019-01-05T04:55:22.720Z,101074.27
2019-01-05T04:58:09.505Z,101074.27
2019-01-05T05:00:56.024Z,101082.59
2019-01-05T05:03:42.716Z,101071.53
2019-01-05T05:06:29.214Z,101070.61
2019-01-05T05:09:15.713Z,101062.95
2019-01-05T05:12:02.249Z,101065.59
2019-01-05T05:14:49.037Z,101065.59
2019-01-05T05:17:35.531Z,101052.72
2019-01-05T05:20:22.234Z,101052.72
2019-01-05T05:23:08.738Z,101051.30
2019-01-05T05:28:47.445Z,101064.86
2019-01-05T05:31:34.210Z,101062.55
2019-01-05T05:34:20.693Z,101056.33
2019-01-05T05:37:07.459Z,101056.33
2019-01-05T05:39:53.950Z,101044.31
2019-01-05T05:42:40.385Z,101038.09
2019-01-05T05:45:26.911Z,101042.45
2019-01-05T05:51:05.265Z,101042.78
2019-01-05T05:53:51.976Z,101034.31
2019-01-05T05:56:38.490Z,101042.03
2019-01-05T05:59:25.271Z,101050.75
2019-01-05T06:02:11.726Z,101046.67
2019-01-05T06:04:58.248Z,101054.55
2019-01-05T06:07:44.739Z,101054.55
2019-01-05T06:10:31.529Z,101046.79
2019-01-05T06:13:18.050Z,101046.79
2019-01-05T06:16:04.762Z,101047.02
2019-01-05T06:18:51.321Z,101047.02
2019-01-05T06:21:38.083Z,101032.59
2019-01-05T06:24:24.576Z,101037.77
2019-01-05T06:27:11.061Z,101029.73
2019-01-05T06:29:57.582Z,101029.73
2019-01-05T06:32:44.338Z,101031.38
2019-01-05T06:35:30.872Z,101036.55
2019-01-05T06:38:11.421Z,101035.08
2019-01-05T06:40:57.954Z,101035.47
2019-01-05T06:49:01.200Z,101049.16
2019-01-05T06:51:50.212Z,101053.66
2019-01-05T06:54:36.669Z,101060.12
2019-01-05T06:57:23.423Z,101059.24
2019-01-05T07:00:09.990Z,101059.24
2019-01-05T07:02:56.434Z,101061.05
2019-01-05T07:05:49.326Z,101061.05
2019-01-05T07:08:25.508Z,101081.36
2019-01-05T07:11:12.509Z,101081.36
2019-01-05T07:13:59.394Z,101083.68
2019-01-05T07:16:45.883Z,101083.68
2019-01-05T07:19:32.412Z,101082.84
2019-01-05T07:22:18.909Z,101082.84
2019-01-05T07:25:05.345Z,101081.52
2019-01-05T07:27:51.841Z,101087.66
2019-01-05T07:30:38.298Z,101088.97
2019-01-05T07:33:24.816Z,101092.56
2019-01-05T07:36:11.278Z,101092.11
2019-01-05T07:38:58.204Z,101093.05
2019-01-05T07:41:44.681Z,101095.20
2019-01-05T07:44:31.183Z,101100.50
2019-01-05T07:47:17.679Z,101100.50
2019-01-05T07:50:04.173Z,101097.40
2019-01-05T07:52:50.618Z,101105.34
2019-01-05T07:55:37.174Z,101105.34
2019-01-05T07:58:23.597Z,101106.67
2019-01-05T08:01:22.578Z,101101.37
2019-01-05T08:03:58.574Z,101098.73
2019-01-05T08:06:45.062Z,101097.85
2019-01-05T08:09:31.584Z,101097.85
2019-01-05T08:12:18.398Z,101108.44
2019-01-05T08:15:04.937Z,101096.91
2019-01-05T08:17:51.370Z,101097.40
2019-01-05T08:20:38.362Z,101100.89
2019-01-05T08:23:24.799Z,101096.47
2019-01-05T08:26:11.294Z,101104.41
2019-01-05T08:28:58.043Z,101107.13
2019-01-05T08:31:44.532Z,101105.41
2019-01-05T08:34:31.012Z,101105.41
2019-01-05T08:37:17.508Z,101111.48
2019-01-05T08:40:04.041Z,101107.51
2019-01-05T08:42:50.468Z,101107.51
2019-01-05T08:45:37.018Z,101103.53
2019-01-05T08:48:23.450Z,101106.19
2019-01-05T08:51:09.955Z,101104.41
2019-01-05T08:53:56.470Z,101104.41
2019-01-05T08:56:42.982Z,101104.34
2019-01-05T08:59:29.526Z,101104.34
2019-01-05T09:02:15.993Z,101100.83
2019-01-05T09:05:02.506Z,101107.39
2019-01-05T09:13:05.835Z,101106.30
2019-01-05T09:15:52.312Z,101107.62
2019-01-05T09:18:38.793Z,101107.62
2019-01-05T09:21:25.308Z,101104.03
2019-01-05T09:24:11.747Z,101104.03
2019-01-05T09:26:58.265Z,101102.71
2019-01-05T09:29:44.706Z,101106.62
2019-01-05T09:32:31.204Z,101107.95
2019-01-05T09:35:17.665Z,101108.82
2019-01-05T09:38:04.196Z,101111.47
2019-01-05T09:40:42.659Z,101108.82
2019-01-05T09:43:29.151Z,101112.25
2019-01-05T09:46:15.583Z,101107.83
2019-01-05T09:49:02.137Z,101107.83
2019-01-05T09:51:48.599Z,101109.98
2019-01-05T09:54:35.086Z,101116.55
2019-01-05T09:57:21.624Z,101122.23
2019-01-05T10:00:20.508Z,101122.23
2019-01-05T10:02:56.215Z,101116.45
2019-01-05T10:05:43.037Z,101121.23
2019-01-05T10:08:29.964Z,101116.27
2019-01-05T10:11:16.466Z,101120.69
2019-01-05T10:14:02.938Z,101120.69
2019-01-05T10:16:49.455Z,101120.14
2019-01-05T10:19:36.346Z,101117.50
2019-01-05T10:22:22.809Z,101117.50
2019-01-05T10:25:09.306Z,101128.48
2019-01-05T10:27:55.813Z,101119.70
2019-01-05T10:30:42.241Z,101125.77
2019-01-05T10:33:28.667Z,101121.34
2019-01-05T10:36:15.183Z,101121.34
2019-01-05T10:39:01.671Z,101115.89
2019-01-05T10:41:48.178Z,101115.89
2019-01-05T10:44:34.712Z,101109.20
2019-01-05T10:47:21.133Z,101108.20
2019-01-05T10:50:07.650Z,101108.20
2019-01-05T10:52:54.121Z,101101.03
2019-01-05T10:55:41.055Z,101102.75
2019-01-05T10:58:27.521Z,101102.75
2019-01-05T11:01:14.000Z,101095.58
2019-01-05T11:04:00.468Z,101097.39
2019-01-05T11:06:46.989Z,101092.48
2019-01-05T11:09:33.512Z,101086.80
2019-01-05T11:12:19.974Z,101086.80
2019-01-05T11:15:06.475Z,101085.86
2019-01-05T11:20:38.286Z,101083.92
2019-01-05T11:23:25.087Z,101083.92
2019-01-05T11:26:11.599Z,101079.27
2019-01-05T11:28:58.494Z,101068.98
2019-01-05T11:31:44.928Z,101057.06
2019-01-05T11:34:31.427Z,101057.06
2019-01-05T11:37:20.210Z,101058.45
2019-01-05T11:40:07.117Z,101059.33
2019-01-05T11:42:56.105Z,101060.33
2019-01-05T11:45:42.589Z,101063.43
2019-01-05T11:48:29.025Z,101053.31
2019-01-05T11:51:15.874Z,101064.37
2019-01-05T11:54:02.383Z,101053.77
2019-01-05T11:56:48.809Z,101060.94
2019-01-05T11:59:35.300Z,101064.05
2019-01-05T12:02:21.784Z,101064.05
2019-01-05T12:05:08.288Z,101066.80
2019-01-05T12:07:54.755Z,101056.19
2019-01-05T12:10:40.750Z,101047.86
2019-01-05T12:13:27.249Z,101044.72
2019-01-05T12:16:13.751Z,101049.95
2019-01-05T12:19:00.180Z,101045.98
2019-01-05T12:21:39.628Z,101051.28
2019-01-05T12:24:26.067Z,101041.23
2019-01-05T12:27:12.572Z,101038.09
2019-01-05T12:30:11.741Z,101038.09
2019-01-05T12:32:47.218Z,101035.52
2019-01-05T12:35:34.108Z,101033.80
2019-01-05T12:38:20.661Z,101039.59
2019-01-05T12:41:07.114Z,101039.59
2019-01-05T12:43:53.367Z,101035.61
2019-01-05T12:46:39.833Z,101037.78
2019-01-05T12:49:26.319Z,101034.19
2019-01-05T12:52:12.800Z,101031.09
2019-01-05T12:54:59.309Z,101031.09
2019-01-05T12:57:46.128Z,101043.02
2019-01-05T13:00:32.597Z,101040.81
2019-01-05T13:03:19.105Z,101040.81
2019-01-05T13:06:05.590Z,101042.14
2019-01-05T13:08:52.019Z,101049.63
2019-01-05T13:11:38.538Z,101049.63
2019-01-05T13:14:24.965Z,101052.73
2019-01-05T13:17:11.499Z,101055.00
2019-01-05T13:23:03.181Z,101057.20
2019-01-05T13:25:52.038Z,101057.20
2019-01-05T13:28:38.566Z,101060.69
2019-01-05T13:31:25.118Z,101066.08
2019-01-05T13:34:11.633Z,101071.38
2019-01-05T13:36:58.159Z,101067.86
2019-01-05T13:39:44.695Z,101068.73
2019-01-05T13:42:31.986Z,101070.13
2019-01-05T13:45:18.469Z,101071.45
2019-01-05T13:48:04.944Z,101079.39
2019-01-05T13:50:51.390Z,101078.94
2019-01-05T13:53:38.200Z,101079.88
2019-01-05T13:56:26.909Z,101075.48
2019-01-05T13:59:14.252Z,101081.27
2019-01-05T14:02:03.011Z,101085.70
2019-01-05T14:04:49.685Z,101086.18
2019-01-05T14:07:36.199Z,101092.42
2019-01-05T14:10:25.180Z,101093.87
2019-01-05T14:13:11.675Z,101093.87
2019-01-05T14:15:58.213Z,101098.72
2019-01-05T14:18:44.737Z,101099.65
2019-01-05T14:21:31.169Z,101104.46
2019-01-05T14:24:17.707Z,101104.46
2019-01-05T14:30:07.070Z,101106.72
2019-01-05T14:32:53.583Z,101106.72
2019-01-05T14:35:40.092Z,101112.19
2019-01-05T14:38:26.531Z,101112.19
2019-01-05T14:41:13.096Z,101110.05
2019-01-05T14:43:59.547Z,101115.83
2019-01-05T14:46:46.121Z,101115.83
2019-01-05T14:49:32.550Z,101117.61
2019-01-05T14:52:19.097Z,101119.41
2019-01-05T14:55:05.548Z,101120.41
2019-01-05T14:57:52.085Z,101114.34
2019-01-05T15:00:38.522Z,101114.34
2019-01-05T15:03:18.830Z,101128.03
2019-01-05T15:06:05.361Z,101124.61
2019-01-05T15:08:51.876Z,101128.25
2019-01-05T15:11:52.339Z,101125.66
2019-01-05T15:14:26.501Z,101125.66
2019-01-05T15:17:13.313Z,101134.99
2019-01-05T15:19:59.860Z,101131.95
2019-01-05T15:22:46.293Z,101136.02
2019-01-05T15:25:33.061Z,101132.11
2019-01-05T15:28:21.378Z,101132.27
2019-01-05T15:31:07.873Z,101132.27
2019-01-05T15:33:54.445Z,101133.65
2019-01-05T15:36:40.894Z,101130.12
2019-01-05T15:39:27.984Z,101136.36
2019-01-05T15:42:15.519Z,101141.20
2019-01-05T15:45:02.042Z,101139.94
2019-01-05T15:47:48.501Z,101137.45
2019-01-05T15:50:35.024Z,101140.55
2019-01-05T15:53:35.145Z,101139.28
2019-01-05T15:56:11.731Z,101139.28
2019-01-05T15:58:58.254Z,101139.77
2019-01-05T16:01:44.734Z,101141.53
2019-01-05T16:04:31.185Z,101141.53
2019-01-05T16:07:20.195Z,101143.73
2019-01-05T16:10:06.701Z,101145.06
2019-01-05T16:12:53.166Z,101148.16
2019-01-05T16:15:39.660Z,101144.67
2019-01-05T16:18:38.643Z,101150.41
2019-01-05T16:21:14.315Z,101152.28
2019-01-05T16:24:03.502Z,101152.28
2019-01-05T16:26:49.968Z,101150.56
2019-01-05T16:29:38.365Z,101157.58
2019-01-05T16:32:24.830Z,101162.48
2019-01-05T16:35:11.338Z,101162.48
2019-01-05T16:38:00.722Z,101168.61
2019-01-05T16:40:47.211Z,101172.20
2019-01-05T16:43:33.650Z,101165.25
2019-01-05T16:46:20.161Z,101169.61
2019-01-05T16:49:06.668Z,101169.61
2019-01-05T16:51:53.194Z,101170.93
2019-01-05T16:54:39.721Z,101170.88
2019-01-05T16:57:26.340Z,101167.44
2019-01-05T17:00:12.995Z,101156.91
2019-01-05T17:02:59.615Z,101156.91
2019-01-05T17:05:46.134Z,101163.14
2019-01-05T17:08:32.616Z,101158.39
2019-01-05T17:11:41.590Z,101166.33
2019-01-05T17:16:45.994Z,101164.08
2019-01-05T17:19:36.457Z,101158.00
2019-01-05T17:22:20.621Z,101158.00
2019-01-05T17:25:10.089Z,101163.80
2019-01-05T17:27:56.577Z,101155.95
2019-01-05T17:30:43.328Z,101166.98
2019-01-05T17:36:47.629Z,101164.40
2019-01-05T17:39:28.442Z,101162.63
2019-01-05T17:42:14.926Z,101162.63
2019-01-05T17:45:01.433Z,101159.59
2019-01-05T17:47:48.349Z,101159.59
2019-01-05T17:50:34.836Z,101161.75
2019-01-05T17:53:35.336Z,101163.55
2019-01-05T17:56:11.275Z,101162.63
2019-01-05T17:59:00.269Z,101159.59
2019-01-05T18:01:47.066Z,101157.78
2019-01-05T18:04:35.247Z,101163.95
2019-01-05T18:07:21.793Z,101167.47
2019-01-05T18:10:08.257Z,101167.47
2019-01-05T18:12:54.785Z,101165.81
2019-01-05T18:15:41.243Z,101169.30
2019-01-05T18:18:27.736Z,101169.30
2019-01-05T18:21:14.172Z,101168.91
2019-01-05T18:24:00.685Z,101173.27
2019-01-05T18:26:47.948Z,101173.27
2019-01-05T18:29:34.443Z,101170.17
2019-01-05T18:32:20.961Z,101172.43
2019-01-05T18:35:07.465Z,101167.98
2019-01-05T18:37:53.919Z,101167.98
2019-01-05T18:40:40.413Z,101162.23
2019-01-05T18:43:26.887Z,101162.23
2019-01-05T18:46:13.450Z,101167.14
2019-01-05T18:48:59.881Z,101167.14
2019-01-05T18:51:46.490Z,101159.64
2019-01-05T18:54:38.034Z,101164.88
2019-01-05T18:57:24.633Z,101164.88
2019-01-05T19:00:12.497Z,101162.29
2019-01-05T19:03:03.173Z,101168.45
2019-01-05T19:05:49.615Z,101168.45
2019-01-05T19:08:36.097Z,101171.95
2019-01-05T19:14:30.261Z,101180.37
2019-01-05T19:17:16.724Z,101180.37
2019-01-05T19:20:03.273Z,101172.04
2019-01-05T19:22:49.704Z,101176.41
2019-01-05T19:25:36.213Z,101176.45
2019-01-05T19:28:22.652Z,101180.37
2019-01-05T19:31:10.513Z,101180.37
2019-01-05T19:33:57.080Z,101168.06
2019-01-05T19:36:45.389Z,101172.94
2019-01-05T19:39:31.889Z,101172.55
2019-01-05T19:42:18.347Z,101172.55
2019-01-05T19:45:04.860Z,101171.22
2019-01-05T19:47:51.330Z,101171.22
2019-01-05T19:50:37.822Z,101178.23
2019-01-05T19:53:24.245Z,101177.39
2019-01-05T19:56:10.744Z,101175.67
2019-01-05T19:58:57.203Z,101182.29
2019-01-05T20:01:43.692Z,101176.18
2019-01-05T20:04:30.151Z,101177.05
2019-01-05T20:07:16.674Z,101182.89
2019-01-05T20:10:03.115Z,101182.89
2019-01-05T20:12:49.644Z,101181.56
2019-01-05T20:15:48.161Z,101188.63
2019-01-05T20:18:24.230Z,101183.82
2019-01-05T20:21:12.964Z,101183.73
2019-01-05T20:24:01.369Z,101183.73
2019-01-05T20:26:52.500Z,101180.63
2019-01-05T20:29:39.062Z,101179.31
2019-01-05T20:32:28.087Z,101179.31
2019-01-05T20:35:14.518Z,101192.06
2019-01-05T20:38:01.006Z,101192.06
2019-01-05T20:40:47.548Z,101193.47
2019-01-05T20:46:39.190Z,101195.19
2019-01-05T20:49:25.731Z,101189.50
2019-01-05T20:52:12.195Z,101184.66
2019-01-05T20:54:58.728Z,101184.21
2019-01-05T20:57:45.244Z,101184.21
2019-01-05T21:00:34.489Z,101188.18
2019-01-05T21:03:20.294Z,101190.34
2019-01-05T21:06:01.663Z,101188.18
2019-01-05T21:08:48.577Z,101188.18
2019-01-05T21:11:35.040Z,101190.34
2019-01-05T21:14:21.537Z,101190.34
2019-01-05T21:17:09.181Z,101189.50
2019-01-05T21:19:55.750Z,101189.50
2019-01-05T21:22:42.188Z,101191.67
2019-01-05T21:25:53.602Z,101183.82
2019-01-05T21:28:31.992Z,101189.95
2019-01-05T21:31:07.731Z,101193.08
2019-01-05T21:34:14.845Z,101185.14
2019-01-05T21:36:51.249Z,101190.44
2019-01-05T21:45:10.815Z,101196.12
2019-01-05T21:47:59.737Z,101196.12
2019-01-05T21:50:35.303Z,101201.02
2019-01-05T21:53:21.782Z,101200.54
2019-01-05T21:56:08.240Z,101202.80
2019-01-05T21:58:54.761Z,101206.77
2019-01-05T22:01:41.202Z,101206.77
2019-01-05T22:04:29.909Z,101216.03
2019-01-05T22:07:16.411Z,101201.41
2019-01-05T22:10:05.743Z,101201.41
2019-01-05T22:12:52.663Z,101214.65
2019-01-05T22:15:39.180Z,101214.65
2019-01-05T22:18:25.712Z,101204.90
2019-01-05T22:21:12.219Z,101215.04
2019-01-05T22:23:58.770Z,101213.32
2019-01-05T22:26:45.211Z,101213.32
2019-01-05T22:29:31.735Z,101209.27
2019-01-05T22:32:18.195Z,101209.36
2019-01-05T22:35:04.742Z,101213.32
2019-01-05T22:37:51.228Z,101213.32
2019-01-05T22:40:37.693Z,101216.81
2019-01-05T22:43:24.228Z,101212.45
2019-01-05T22:46:10.660Z,101211.22
2019-01-05T22:48:57.173Z,101217.41
2019-01-05T22:51:43.605Z,101217.41
2019-01-05T22:54:30.403Z,101208.23
2019-01-05T22:57:29.301Z,101208.23
2019-01-05T23:00:05.046Z,101206.42
2019-01-05T23:02:51.544Z,101206.42
2019-01-05T23:05:37.974Z,101207.75
2019-01-05T23:08:24.480Z,101205.59
2019-01-05T23:11:23.225Z,101208.68
2019-01-05T23:13:59.126Z,101208.68
2019-01-05T23:16:45.572Z,101209.61
2019-01-05T23:19:33.881Z,101209.61
2019-01-05T23:22:20.264Z,101221.91
2019-01-05T23:25:06.793Z,101217.94
2019-01-05T23:27:53.298Z,101223.23
2019-01-05T23:30:39.799Z,101223.23
2019-01-05T23:33:26.229Z,101219.66
2019-01-05T23:36:12.751Z,101210.88
2019-01-05T23:38:59.235Z,101210.88
2019-01-05T23:41:45.701Z,101209.61
2019-01-05T23:44:32.213Z,101213.13
2019-01-05T23:47:18.758Z,101213.19
2019-01-05T23:50:05.287Z,101207.89
2019-01-05T23:52:51.741Z,101207.89
2019-01-05T23:55:38.274Z,101205.31
2019-01-05T23:58:24.842Z,101205.31
